PWSweather.com
Personal Weather Stations
Station Observations
REBOX73
Petalia At Mount Pantokrator, CorfuGR 49081

Petalia At Mount PantokratorCorfuGR 49081

Lat: 39.747915, Lon: 19.841466

Elevation: 2132

Station Type: ws1080

http://pantokratoras-kerkyra.meteoclub.gr/

Latest ConditionsUpdated 5:15:01 AM GMT+01:01 Wednesday, Sep 24, 2014
Currently Today's Max Today's Min Today's Average
Temperature 54.0°F12.2°C 57.9°F14.4°C 53.6°F12.0°C 55.9°F13.3°C
Dew Point 42.5°F5.8°C 44.1°F6.7°C 41.3°F5.2°C 42.4°F5.8°C
Winds 1.3 mph NNW2.1 kmh NNW 1.3 mph NNW2.1 kmh NNW - 0.7 mph 1.1 kmh
Wind Gusts 1.6 mph2.6 kmh 2.2 mph3.5 kmh - -
Humidity 65% 65% 57% 60%
Pressure 29.97 in1014.9 mb 29.97 in1014.9 mb 29.95 in1014.2 mb -
Hour Temp Dew Point Humidity Winds Wind Gusts Pressure Precip Precip Rate Daily Precip Total
05:15 AM 54.0°F12.2°C 42.5°F5.8°C 65% 1.3 mph NNW2.1 kmh NNW 1.6 mph2.6 kmh 29.97 in1014.9 mb 0.00 in0.0 mm 0.00 in/hr0.0 mm/hr 0.00 in0.0 mm
05:00 AM 53.6°F12.0°C 41.7°F5.4°C 64% 1.1 mph NW1.8 kmh NW 2.2 mph3.5 kmh 29.97 in1014.9 mb 0.00 in0.0 mm 0.00 in/hr0.0 mm/hr 0.00 in0.0 mm
04:45 AM 53.6°F12.0°C 41.7°F5.4°C 64% 1.2 mph N1.9 kmh N 1.6 mph2.6 kmh 29.97 in1014.9 mb 0.00 in0.0 mm 0.00 in/hr0.0 mm/hr 0.00 in0.0 mm
04:30 AM 54.1°F12.3°C 41.8°F5.4°C 63% 0.9 mph N1.4 kmh N 2.2 mph3.5 kmh 29.97 in1014.9 mb 0.00 in0.0 mm 0.00 in/hr0.0 mm/hr 0.00 in0.0 mm
04:15 AM 54.3°F12.4°C 42.0°F5.6°C 63% 0.8 mph N1.3 kmh N 1.6 mph2.6 kmh 29.97 in1014.9 mb 0.00 in0.0 mm 0.00 in/hr0.0 mm/hr 0.00 in0.0 mm
04:00 AM 54.5°F12.5°C 41.8°F5.4°C 62% 1.2 mph NNW1.9 kmh NNW 2.2 mph3.5 kmh 29.96 in1014.6 mb 0.00 in0.0 mm 0.00 in/hr0.0 mm/hr 0.00 in0.0 mm
03:45 AM 54.5°F12.5°C 41.3°F5.2°C 61% 0.9 mph NNW1.4 kmh NNW 2.2 mph3.5 kmh 29.96 in1014.6 mb 0.00 in0.0 mm 0.00 in/hr0.0 mm/hr 0.00 in0.0 mm
03:30 AM 55.0°F12.8°C 41.8°F5.4°C 61% 0.5 mph NNW0.8 kmh NNW 1.6 mph2.6 kmh 29.96 in1014.6 mb 0.00 in0.0 mm 0.00 in/hr0.0 mm/hr 0.00 in0.0 mm
03:15 AM 55.8°F13.2°C 42.9°F6.1°C 62% Calm Calm -- 29.95 in1014.2 mb 0.00 in0.0 mm 0.00 in/hr0.0 mm/hr 0.00 in0.0 mm
03:00 AM 56.1°F13.4°C 42.0°F5.6°C 59% 0.9 mph N1.4 kmh N 1.6 mph2.6 kmh 29.95 in1014.2 mb 0.00 in0.0 mm 0.00 in/hr0.0 mm/hr 0.00 in0.0 mm
02:45 AM 55.8°F13.2°C 41.7°F5.4°C 59% Calm Calm -- 29.95 in1014.2 mb 0.00 in0.0 mm 0.00 in/hr0.0 mm/hr 0.00 in0.0 mm
02:30 AM 55.8°F13.2°C 41.7°F5.4°C 59% 1.0 mph N1.6 kmh N 2.2 mph3.5 kmh 29.95 in1014.2 mb 0.00 in0.0 mm 0.00 in/hr0.0 mm/hr 0.00 in0.0 mm
02:15 AM 56.1°F13.4°C 42.0°F5.6°C 59% 1.0 mph NNW1.6 kmh NNW 1.6 mph2.6 kmh 29.95 in1014.2 mb 0.00 in0.0 mm 0.00 in/hr0.0 mm/hr 0.00 in0.0 mm
02:00 AM 56.7°F13.7°C 42.5°F5.8°C 59% 0.6 mph NNW1.0 kmh NNW 1.6 mph2.6 kmh 29.95 in1014.2 mb 0.00 in0.0 mm 0.00 in/hr0.0 mm/hr 0.00 in0.0 mm
01:45 AM 57.4°F14.1°C 43.2°F6.2°C 59% 0.2 mph N0.3 kmh N 0.7 mph1.1 kmh 29.95 in1014.2 mb 0.00 in0.0 mm 0.00 in/hr0.0 mm/hr 0.00 in0.0 mm
01:30 AM 57.7°F14.3°C 43.5°F6.4°C 59% 0.2 mph NW0.3 kmh NW 0.7 mph1.1 kmh 29.95 in1014.2 mb 0.00 in0.0 mm 0.00 in/hr0.0 mm/hr 0.00 in0.0 mm
01:15 AM 57.9°F14.4°C 43.7°F6.5°C 59% 0.1 mph N0.2 kmh N 1.6 mph2.6 kmh 29.95 in1014.2 mb 0.00 in0.0 mm 0.00 in/hr0.0 mm/hr 0.00 in0.0 mm
01:00 AM 57.9°F14.4°C 44.1°F6.7°C 60% 0.4 mph E0.6 kmh E 1.6 mph2.6 kmh 29.95 in1014.2 mb 0.00 in0.0 mm 0.00 in/hr0.0 mm/hr 0.00 in0.0 mm
12:45 AM 57.4°F14.1°C 43.2°F6.2°C 59% 0.2 mph NE0.3 kmh NE 0.7 mph1.1 kmh 29.96 in1014.6 mb 0.00 in0.0 mm 0.00 in/hr0.0 mm/hr 0.00 in0.0 mm
12:30 AM 57.4°F14.1°C 42.3°F5.7°C 57% 1.3 mph NNW2.1 kmh NNW 1.6 mph2.6 kmh 29.96 in1014.6 mb 0.00 in0.0 mm 0.00 in/hr0.0 mm/hr 0.00 in0.0 mm
12:15 AM 57.4°F14.1°C 42.7°F5.9°C 58% 0.8 mph N1.3 kmh N 1.6 mph2.6 kmh 29.96 in1014.6 mb 0.00 in0.0 mm 0.00 in/hr0.0 mm/hr 0.00 in0.0 mm
12:00 AM 57.7°F14.3°C 43.5°F6.4°C 59% 0.7 mph SSW1.1 kmh SSW 1.6 mph2.6 kmh 29.95 in1014.2 mb 0.00 in0.0 mm 0.00 in/hr0.0 mm/hr 0.00 in0.0 mm